Time;durP1;ratioP1;P1;durP2;ratioP2;P2;SDS_P1;SDS_P2;PMS_P1;PMS_P2;Temp;Humidity;BMP_temperature;BMP_pressure;BME280_temperature;BME280_humidity;BME280_pressure;Samples;Min_cycle;Max_cycle;Signal;HPM_P1;HPM_P2
2023/08/21 00:01:45;;;;;;;10.30;8.30;;;21.10;99.90;;;;;;5253609;28;20198;-45
2023/08/21 00:04:15;;;;;;;18.93;8.67;;;21.10;99.90;;;;;;5264920;28;20776;-45
2023/08/21 00:06:46;;;;;;;13.83;9.93;;;21.10;99.90;;;;;;5262008;28;20188;-44
2023/08/21 00:09:17;;;;;;;12.00;9.70;;;21.10;99.90;;;;;;5261212;28;20177;-45
2023/08/21 00:11:47;;;;;;;12.63;9.77;;;21.00;99.90;;;;;;5248869;28;20209;-45
2023/08/21 00:14:18;;;;;;;12.93;8.50;;;21.00;99.90;;;;;;5267286;28;20177;-45
2023/08/21 00:16:49;;;;;;;12.13;9.40;;;21.00;99.90;;;;;;5268865;28;20217;-45
2023/08/21 00:19:19;;;;;;;15.00;9.30;;;21.00;99.90;;;;;;5269085;28;20181;-45
2023/08/21 00:21:50;;;;;;;11.23;9.20;;;20.90;99.90;;;;;;5265436;28;20697;-45
2023/08/21 00:24:21;;;;;;;9.27;7.67;;;20.90;99.90;;;;;;5269202;28;20231;-45
2023/08/21 00:26:51;;;;;;;14.43;8.30;;;20.90;99.90;;;;;;5267430;28;20182;-45
2023/08/21 00:29:22;;;;;;;11.90;8.20;;;20.90;99.90;;;;;;5265517;28;20181;-45
2023/08/21 00:31:53;;;;;;;11.80;7.57;;;20.90;99.90;;;;;;5271605;28;20565;-45
2023/08/21 00:34:24;;;;;;;9.10;7.33;;;20.90;99.90;;;;;;5270908;28;20194;-45
2023/08/21 00:36:54;;;;;;;10.40;8.70;;;20.80;99.90;;;;;;5268301;28;20209;-44
2023/08/21 00:39:25;;;;;;;11.13;8.27;;;20.80;99.90;;;;;;5264486;28;20202;-45
2023/08/21 00:41:56;;;;;;;16.20;9.90;;;20.80;99.90;;;;;;5266647;28;20197;-45
2023/08/21 00:44:26;;;;;;;14.10;8.90;;;20.80;99.90;;;;;;5266597;28;20192;-45
2023/08/21 00:46:57;;;;;;;16.13;8.10;;;20.80;99.90;;;;;;5263964;28;20548;-45
2023/08/21 00:49:29;;;;;;;16.07;8.80;;;20.80;99.90;;;;;;5271813;28;20247;-44
2023/08/21 00:52:01;;;;;;;16.20;9.17;;;20.70;99.90;;;;;;5267395;28;20745;-46
2023/08/21 00:54:32;;;;;;;21.53;8.60;;;20.70;99.90;;;;;;5269855;28;20529;-45
2023/08/21 00:57:03;;;;;;;15.53;9.33;;;20.70;99.90;;;;;;5269608;28;20555;-45
2023/08/21 00:59:34;;;;;;;9.90;8.47;;;20.70;99.90;;;;;;5254424;28;20498;-46
2023/08/21 01:02:04;;;;;;;11.70;10.23;;;20.70;99.90;;;;;;5271357;28;20696;-46
2023/08/21 01:04:35;;;;;;;10.93;9.20;;;20.70;99.90;;;;;;5273476;28;20412;-46
2023/08/21 01:07:09;;;;;;;14.43;8.77;;;20.70;99.90;;;;;;5272735;28;20276;-45
2023/08/21 01:10:15;;;;;;;15.00;8.90;;;20.60;99.90;;;;;;5270983;28;20181;-46
2023/08/21 01:12:55;;;;;;;12.37;9.50;;;20.60;99.90;;;;;;5259881;28;20467;-45
2023/08/21 01:15:26;;;;;;;11.70;8.40;;;20.60;99.90;;;;;;5265857;28;20498;-45
2023/08/21 01:17:58;;;;;;;12.13;10.20;;;20.60;99.90;;;;;;5271338;28;20435;-44
2023/08/21 01:20:29;;;;;;;10.90;9.53;;;20.60;99.90;;;;;;5268645;28;20442;-46
2023/08/21 01:23:07;;;;;;;13.50;8.50;;;20.60;99.90;;;;;;5273747;28;20428;-45
2023/08/21 01:25:38;;;;;;;17.37;8.93;;;20.60;99.90;;;;;;5274856;28;20397;-46
2023/08/21 01:28:09;;;;;;;13.40;8.70;;;20.60;99.90;;;;;;5272184;28;20454;-45
2023/08/21 01:30:40;;;;;;;14.23;9.17;;;20.60;99.90;;;;;;5272611;28;20193;-45
2023/08/21 01:33:14;;;;;;;13.10;9.33;;;20.70;99.90;;;;;;5254839;28;20256;-46
2023/08/21 01:35:45;;;;;;;10.90;9.27;;;20.70;99.90;;;;;;5269399;28;20546;-47
2023/08/21 01:38:16;;;;;;;12.63;9.93;;;20.70;99.90;;;;;;5271390;28;20538;-46
2023/08/21 01:40:47;;;;;;;10.30;9.20;;;20.80;99.90;;;;;;5265724;28;20569;-45
2023/08/21 01:43:20;;;;;;;15.50;9.63;;;20.80;99.90;;;;;;5270966;28;20433;-46
2023/08/21 01:45:51;;;;;;;11.17;8.90;;;20.80;99.90;;;;;;5268240;28;20447;-45
2023/08/21 01:48:21;;;;;;;11.47;9.70;;;20.80;99.90;;;;;;5264573;28;20933;-45
2023/08/21 01:50:52;;;;;;;10.63;8.43;;;20.90;99.90;;;;;;5272329;28;20209;-45
2023/08/21 01:53:23;;;;;;;12.17;9.63;;;20.90;99.90;;;;;;5248611;28;20198;-45
2023/08/21 01:55:54;;;;;;;11.23;8.77;;;20.90;99.90;;;;;;5270989;28;20205;-45
2023/08/21 01:58:24;;;;;;;13.47;9.17;;;21.00;99.90;;;;;;5275092;28;20174;-45
2023/08/21 02:00:55;;;;;;;13.63;8.80;;;21.00;99.90;;;;;;5267741;28;20233;-45
2023/08/21 02:03:26;;;;;;;13.40;9.90;;;21.00;99.90;;;;;;5270703;28;20318;-45
2023/08/21 02:06:00;;;;;;;10.03;8.27;;;21.00;99.90;;;;;;5266633;28;20209;-45
2023/08/21 02:08:34;;;;;;;14.27;9.60;;;21.00;99.90;;;;;;5273299;28;20439;-45
2023/08/21 02:11:05;;;;;;;14.30;8.57;;;21.00;99.90;;;;;;5270149;28;20936;-45
2023/08/21 02:13:36;;;;;;;17.77;9.00;;;21.00;99.90;;;;;;5272517;28;20494;-45
2023/08/21 02:16:07;;;;;;;11.40;8.23;;;21.00;99.90;;;;;;5268039;28;20221;-45
2023/08/21 02:18:37;;;;;;;10.57;7.53;;;21.10;99.90;;;;;;5263461;28;20195;-46
2023/08/21 02:21:08;;;;;;;11.13;8.03;;;21.10;99.90;;;;;;5265718;28;20547;-45
2023/08/21 02:23:39;;;;;;;16.27;8.97;;;21.10;99.90;;;;;;5249236;28;20247;-45
2023/08/21 02:26:10;;;;;;;16.30;8.87;;;21.10;99.90;;;;;;5266074;28;20186;-45
2023/08/21 02:28:43;;;;;;;10.77;6.97;;;21.10;99.90;;;;;;5257810;28;20246;-45
2023/08/21 02:31:14;;;;;;;10.43;7.97;;;21.00;99.90;;;;;;5268421;28;20237;-45
2023/08/21 02:33:44;;;;;;;12.60;8.07;;;21.00;99.90;;;;;;5269980;28;20432;-45
2023/08/21 02:36:15;;;;;;;11.70;8.47;;;21.00;99.90;;;;;;5268211;28;20209;-44
2023/08/21 02:38:46;;;;;;;12.67;7.83;;;21.10;99.90;;;;;;5264090;28;20209;-44
2023/08/21 02:41:18;;;;;;;10.57;6.90;;;21.00;99.90;;;;;;5269699;28;20457;-45
2023/08/21 02:43:50;;;;;;;7.07;6.20;;;21.00;99.90;;;;;;5269520;28;20186;-45
2023/08/21 02:46:21;;;;;;;7.50;6.80;;;21.00;99.90;;;;;;5264014;28;20500;-44
2023/08/21 02:48:51;;;;;;;14.70;7.80;;;21.00;99.90;;;;;;5269782;28;20527;-45
2023/08/21 02:51:22;;;;;;;16.90;8.30;;;21.10;99.90;;;;;;5271487;28;20212;-44
2023/08/21 02:53:53;;;;;;;21.10;7.60;;;21.10;99.90;;;;;;5269284;28;20648;-45
2023/08/21 02:56:24;;;;;;;10.63;8.00;;;21.10;99.90;;;;;;5269564;28;20289;-46
2023/08/21 02:58:54;;;;;;;10.80;7.10;;;21.10;99.90;;;;;;5270602;28;20193;-45
2023/08/21 03:01:25;;;;;;;8.47;6.40;;;21.20;99.90;;;;;;5263790;28;20198;-45
2023/08/21 03:03:56;;;;;;;10.83;7.10;;;21.20;99.90;;;;;;5265091;28;20186;-44
2023/08/21 03:06:27;;;;;;;7.30;6.60;;;21.20;99.90;;;;;;5268116;28;20182;-44
2023/08/21 03:08:57;;;;;;;8.40;6.50;;;21.20;99.90;;;;;;5267513;28;20571;-45
2023/08/21 03:11:28;;;;;;;8.07;7.00;;;21.20;99.90;;;;;;5265903;28;20220;-44
2023/08/21 03:13:59;;;;;;;9.97;6.70;;;21.20;99.90;;;;;;5265427;28;20242;-45
2023/08/21 03:16:29;;;;;;;9.90;6.80;;;21.20;99.90;;;;;;5267448;28;20209;-44
2023/08/21 03:19:01;;;;;;;8.60;7.50;;;21.20;99.90;;;;;;5269025;28;20182;-44
2023/08/21 03:21:31;;;;;;;15.50;6.90;;;21.30;99.90;;;;;;5268417;28;20201;-44
2023/08/21 03:24:02;;;;;;;16.17;6.23;;;21.20;99.90;;;;;;5249904;28;20444;-44
2023/08/21 03:26:33;;;;;;;10.60;6.17;;;21.30;99.90;;;;;;5265635;28;20182;-44
2023/08/21 03:29:04;;;;;;;9.27;6.97;;;21.30;99.90;;;;;;5264855;28;20468;-45
2023/08/21 03:31:35;;;;;;;7.37;5.93;;;21.30;99.90;;;;;;5272457;28;20257;-44
2023/08/21 03:34:06;;;;;;;6.23;5.60;;;21.30;99.90;;;;;;5267946;28;20201;-45
2023/08/21 03:36:38;;;;;;;14.70;6.60;;;21.30;99.90;;;;;;5268621;28;20273;-45
2023/08/21 03:39:09;;;;;;;8.10;6.03;;;21.30;99.90;;;;;;5271397;28;20200;-45
2023/08/21 03:41:39;;;;;;;15.60;6.57;;;21.40;99.90;;;;;;5267351;28;20971;-45
2023/08/21 03:44:10;;;;;;;6.53;5.97;;;21.30;99.90;;;;;;5268870;28;20277;-45
2023/08/21 03:46:41;;;;;;;10.93;6.53;;;21.30;99.90;;;;;;5232811;28;20238;-45
2023/08/21 03:49:12;;;;;;;6.47;5.80;;;21.30;99.90;;;;;;5270140;28;20685;-45
2023/08/21 03:51:43;;;;;;;8.27;6.57;;;21.20;99.90;;;;;;5270692;28;20201;-45
2023/08/21 03:54:13;;;;;;;10.03;5.70;;;21.20;99.90;;;;;;5269698;28;20235;-45
2023/08/21 03:56:44;;;;;;;6.77;5.40;;;21.20;99.90;;;;;;5268023;28;20717;-45
2023/08/21 03:59:15;;;;;;;8.27;6.70;;;21.10;99.90;;;;;;5268927;28;20182;-46
2023/08/21 04:01:46;;;;;;;7.53;6.00;;;21.10;99.90;;;;;;5274720;28;20228;-46
2023/08/21 04:04:16;;;;;;;7.17;6.57;;;21.10;99.90;;;;;;5269007;28;20186;-45
2023/08/21 04:06:47;;;;;;;11.93;6.87;;;21.10;99.90;;;;;;5274251;28;20196;-45
2023/08/21 04:09:18;;;;;;;6.40;5.77;;;21.10;99.90;;;;;;5270024;28;20186;-46
2023/08/21 04:11:48;;;;;;;6.73;6.13;;;21.20;99.90;;;;;;5251451;28;20781;-47
2023/08/21 04:14:19;;;;;;;8.20;6.60;;;21.20;99.90;;;;;;5260795;28;20228;-45
2023/08/21 04:16:50;;;;;;;11.37;6.63;;;21.20;99.90;;;;;;5268082;28;20216;-46
2023/08/21 04:19:20;;;;;;;6.50;5.80;;;21.30;99.90;;;;;;5271984;28;20182;-46
2023/08/21 04:21:51;;;;;;;6.03;5.33;;;21.30;99.90;;;;;;5268194;28;20221;-45
2023/08/21 04:24:22;;;;;;;6.10;5.50;;;21.40;99.90;;;;;;5264469;28;20178;-45
2023/08/21 04:26:52;;;;;;;9.83;6.80;;;21.40;99.90;;;;;;5263852;28;20557;-46
2023/08/21 04:29:23;;;;;;;5.73;5.13;;;21.40;99.90;;;;;;5266524;28;20601;-45
2023/08/21 04:31:54;;;;;;;7.90;6.80;;;21.50;99.90;;;;;;5268331;28;20214;-45
2023/08/21 04:34:24;;;;;;;6.83;6.17;;;21.60;99.90;;;;;;5272223;28;20654;-45
2023/08/21 04:36:55;;;;;;;9.27;6.03;;;21.60;99.90;;;;;;5275594;28;20216;-45
2023/08/21 04:39:26;;;;;;;7.07;5.27;;;21.60;99.90;;;;;;5273107;28;20177;-46
2023/08/21 04:41:57;;;;;;;5.83;5.33;;;21.60;99.90;;;;;;5268036;28;20242;-45
2023/08/21 04:44:27;;;;;;;5.87;5.20;;;21.60;99.90;;;;;;5268799;28;20312;-45
2023/08/21 04:47:19;;;;;;;6.63;5.40;;;21.70;99.90;;;;;;5272790;28;20338;-45
2023/08/21 04:49:50;;;;;;;7.10;4.87;;;21.70;99.90;;;;;;5262026;28;20182;-46
2023/08/21 04:52:22;;;;;;;6.27;5.67;;;21.80;99.90;;;;;;5270099;28;20648;-46
2023/08/21 04:54:54;;;;;;;6.20;5.40;;;22.00;99.90;;;;;;5264338;28;21016;-45
2023/08/21 04:57:24;;;;;;;6.07;5.47;;;22.10;99.90;;;;;;5254416;28;20458;-45
2023/08/21 04:59:55;;;;;;;8.40;5.33;;;22.30;99.90;;;;;;5264663;28;20659;-45
2023/08/21 05:02:26;;;;;;;8.13;5.80;;;22.30;99.90;;;;;;5274804;28;20208;-45
2023/08/21 05:04:56;;;;;;;7.37;5.90;;;22.50;99.90;;;;;;5270422;28;20170;-45
2023/08/21 05:07:27;;;;;;;11.33;5.90;;;23.00;99.90;;;;;;5269032;28;20542;-45
2023/08/21 05:10:01;;;;;;;10.83;5.57;;;23.60;99.90;;;;;;5271782;28;20258;-49
2023/08/21 05:12:32;;;;;;;7.13;5.67;;;23.90;99.90;;;;;;5268251;28;20255;-45
2023/08/21 05:15:03;;;;;;;8.57;5.60;;;24.00;99.90;;;;;;5269403;28;20441;-46
2023/08/21 05:17:34;;;;;;;12.63;6.80;;;24.00;99.90;;;;;;5275108;28;20186;-45
2023/08/21 05:20:05;;;;;;;8.10;5.70;;;23.90;99.90;;;;;;5269143;28;20741;-46
2023/08/21 05:22:36;;;;;;;6.53;5.93;;;23.80;99.90;;;;;;5271640;28;20201;-46
2023/08/21 05:25:08;;;;;;;7.87;6.30;;;24.20;99.90;;;;;;5269079;28;20877;-45
2023/08/21 05:27:38;;;;;;;6.63;5.73;;;24.40;99.90;;;;;;5273063;28;20181;-45
2023/08/21 05:30:11;;;;;;;5.80;5.30;;;24.60;99.90;;;;;;5273563;28;20445;-45
2023/08/21 05:32:42;;;;;;;5.27;4.73;;;26.00;99.90;;;;;;5256133;28;20206;-45
2023/08/21 05:35:13;;;;;;;7.67;6.07;;;27.20;99.90;;;;;;5253419;28;20454;-46
2023/08/21 05:37:45;;;;;;;5.80;5.30;;;27.70;99.90;;;;;;5271869;28;20189;-45
2023/08/21 05:40:15;;;;;;;5.93;4.50;;;28.00;99.90;;;;;;5267212;28;20707;-46
2023/08/21 05:42:46;;;;;;;5.20;4.80;;;28.20;99.90;;;;;;5263841;28;20503;-47
2023/08/21 05:45:17;;;;;;;5.90;4.87;;;28.50;99.90;;;;;;5267361;28;20209;-46
2023/08/21 05:47:48;;;;;;;8.87;6.00;;;30.10;99.90;;;;;;5267448;28;20253;-47
2023/08/21 05:50:19;;;;;;;9.60;5.67;;;31.80;96.00;;;;;;5266319;28;20193;-48
2023/08/21 05:52:49;;;;;;;6.57;6.07;;;32.90;90.20;;;;;;5265502;28;20221;-47
2023/08/21 05:55:21;;;;;;;6.53;5.73;;;32.40;84.40;;;;;;5267796;28;20780;-47
2023/08/21 05:57:51;;;;;;;7.73;4.50;;;31.80;84.10;;;;;;5266407;28;20230;-47
2023/08/21 06:00:22;;;;;;;6.17;5.50;;;30.80;85.90;;;;;;5261948;28;20439;-45
2023/08/21 06:02:53;;;;;;;5.80;5.30;;;29.70;90.00;;;;;;5282670;27;20360;-45
2023/08/21 06:05:24;;;;;;;7.60;5.93;;;28.60;91.40;;;;;;5274563;28;20201;-45
2023/08/21 06:07:54;;;;;;;8.47;5.17;;;27.70;94.00;;;;;;5263989;28;20619;-47
2023/08/21 06:10:26;;;;;;;7.27;5.37;;;27.40;96.40;;;;;;5263220;28;20227;-46
2023/08/21 06:12:56;;;;;;;7.87;5.77;;;27.30;97.00;;;;;;5263144;28;20186;-45
2023/08/21 06:15:27;;;;;;;6.40;5.70;;;27.50;97.60;;;;;;5266107;28;20456;-45
2023/08/21 06:17:59;;;;;;;5.50;4.93;;;28.50;97.50;;;;;;5260664;28;20186;-45
2023/08/21 06:20:30;;;;;;;7.30;6.27;;;29.20;94.90;;;;;;5261240;28;20647;-45
2023/08/21 06:23:01;;;;;;;5.40;5.00;;;28.70;94.30;;;;;;5271645;28;20443;-45
2023/08/21 06:25:36;;;;;;;7.00;5.57;;;28.30;95.30;;;;;;5269746;28;20196;-47
2023/08/21 06:28:06;;;;;;;6.07;5.57;;;28.70;95.10;;;;;;5269906;28;20615;-46
2023/08/21 06:30:37;;;;;;;5.50;5.00;;;29.10;93.90;;;;;;5261110;28;20446;-46
2023/08/21 06:33:08;;;;;;;5.87;5.27;;;28.80;93.60;;;;;;5263657;28;20203;-46
2023/08/21 06:35:39;;;;;;;12.00;6.00;;;28.30;94.50;;;;;;5269609;28;20224;-46
2023/08/21 06:38:09;;;;;;;7.80;4.87;;;29.20;93.90;;;;;;5263105;28;20182;-47
2023/08/21 06:40:40;;;;;;;5.57;5.03;;;29.50;92.80;;;;;;5269511;28;20661;-46
2023/08/21 06:43:11;;;;;;;5.20;4.80;;;29.30;92.10;;;;;;5265549;28;20245;-46
2023/08/21 06:45:42;;;;;;;5.63;4.53;;;30.20;92.10;;;;;;5265543;28;20657;-46
2023/08/21 06:48:13;;;;;;;4.97;4.47;;;32.80;86.60;;;;;;5255725;28;20268;-46
2023/08/21 06:50:43;;;;;;;8.87;5.10;;;35.10;73.70;;;;;;5264717;28;20215;-46
2023/08/21 06:53:14;;;;;;;4.90;4.50;;;35.30;68.30;;;;;;5256291;28;20272;-47
2023/08/21 06:55:46;;;;;;;6.65;5.05;;;36.80;62.50;;;;;;5258247;28;20205;-47
2023/08/21 06:58:16;;;;;;;5.32;4.88;;;38.30;56.60;;;;;;5246749;28;20181;-46
2023/08/21 07:00:47;;;;;;;10.07;4.97;;;39.90;50.90;;;;;;5259712;28;20539;-45
2023/08/21 07:03:18;;;;;;;5.68;4.13;;;40.40;47.80;;;;;;5265066;28;20177;-47
2023/08/21 07:05:59;;;;;;;3.80;3.53;;;39.40;46.20;;;;;;5268340;28;20189;-47
2023/08/21 07:08:30;;;;;;;5.47;4.55;;;38.60;47.50;;;;;;5269636;28;20599;-45
2023/08/21 07:11:04;;;;;;;9.18;5.00;;;38.10;47.30;;;;;;5265226;28;20251;-46
2023/08/21 07:13:35;;;;;;;4.95;4.45;;;37.60;47.70;;;;;;5246044;28;20186;-46
2023/08/21 07:16:06;;;;;;;5.70;4.22;;;37.60;46.70;;;;;;5260732;28;20212;-45
2023/08/21 07:18:38;;;;;;;5.72;3.70;;;37.50;47.40;;;;;;5262722;28;20184;-46
2023/08/21 07:21:08;;;;;;;4.43;4.03;;;37.80;47.00;;;;;;5273077;28;20568;-46
2023/08/21 07:23:39;;;;;;;3.20;3.10;;;39.10;45.00;;;;;;5265846;28;20177;-46
2023/08/21 07:26:10;;;;;;;4.93;4.20;;;39.80;43.60;;;;;;5268450;28;20195;-47
2023/08/21 07:28:41;;;;;;;4.05;3.30;;;40.30;42.50;;;;;;5270121;28;20177;-47
2023/08/21 07:31:11;;;;;;;4.75;3.85;;;40.10;41.20;;;;;;5264749;28;20243;-45
2023/08/21 07:33:42;;;;;;;3.30;3.00;;;39.20;42.40;;;;;;5262592;28;20181;-46
2023/08/21 07:36:16;;;;;;;5.70;3.90;;;38.80;42.90;;;;;;5265165;28;20618;-46
2023/08/21 07:38:47;;;;;;;4.53;4.15;;;39.40;42.40;;;;;;5263098;28;20180;-46
2023/08/21 07:41:18;;;;;;;4.00;3.75;;;40.60;40.60;;;;;;5266713;28;20234;-47
2023/08/21 07:43:49;;;;;;;6.80;3.78;;;40.70;39.40;;;;;;5268835;28;20208;-47
2023/08/21 07:46:19;;;;;;;4.18;3.67;;;41.00;39.00;;;;;;5269070;28;20309;-47
2023/08/21 07:48:50;;;;;;;5.50;3.58;;;40.50;38.50;;;;;;5267627;28;20549;-47
2023/08/21 07:51:21;;;;;;;3.00;2.80;;;39.60;38.90;;;;;;5260858;28;20323;-46
2023/08/21 07:53:52;;;;;;;6.60;3.80;;;39.40;40.20;;;;;;5268536;28;20189;-47
2023/08/21 07:56:23;;;;;;;12.02;2.72;;;39.40;39.50;;;;;;5259816;28;20296;-46
2023/08/21 07:58:53;;;;;;;5.65;3.28;;;39.10;39.60;;;;;;5257912;28;20256;-46
2023/08/21 08:01:24;;;;;;;3.38;2.88;;;37.80;39.20;;;;;;5255746;28;20218;-47
2023/08/21 08:03:55;;;;;;;5.65;3.00;;;37.10;39.60;;;;;;5264813;28;20267;-46
2023/08/21 08:06:26;;;;;;;3.50;3.00;;;35.90;41.70;;;;;;5257643;28;20486;-47
2023/08/21 08:08:57;;;;;;;9.15;2.38;;;35.20;41.70;;;;;;5258816;28;20181;-46
2023/08/21 08:11:28;;;;;;;6.75;3.50;;;34.40;43.70;;;;;;5269532;28;20202;-46
2023/08/21 08:13:58;;;;;;;2.63;2.53;;;33.60;44.90;;;;;;5267847;28;20234;-47
2023/08/21 08:16:29;;;;;;;11.63;2.90;;;33.30;46.30;;;;;;5268545;28;20665;-46
2023/08/21 08:19:00;;;;;;;3.00;2.60;;;33.30;46.30;;;;;;5268388;28;20185;-47
2023/08/21 08:21:30;;;;;;;4.10;2.47;;;33.00;46.60;;;;;;5268130;28;20388;-46
2023/08/21 08:24:01;;;;;;;4.73;2.30;;;32.20;47.20;;;;;;5271484;28;20169;-48
2023/08/21 08:26:32;;;;;;;5.03;3.17;;;31.50;48.50;;;;;;5268759;28;20528;-46
2023/08/21 08:29:03;;;;;;;5.00;2.83;;;31.00;49.90;;;;;;5261186;28;20189;-46
2023/08/21 08:31:34;;;;;;;3.33;3.10;;;30.60;51.20;;;;;;5261600;28;20211;-47
2023/08/21 08:34:05;;;;;;;4.87;3.10;;;30.30;52.10;;;;;;5263560;28;20208;-51
2023/08/21 08:36:35;;;;;;;3.27;2.57;;;30.30;52.00;;;;;;5260755;28;20205;-45
2023/08/21 08:39:06;;;;;;;7.70;1.93;;;29.80;53.00;;;;;;5264558;28;20176;-47
2023/08/21 08:41:54;;;;;;;3.40;2.67;;;29.40;51.80;;;;;;5267954;28;20286;-46
2023/08/21 08:44:26;;;;;;;2.03;1.40;;;29.60;51.40;;;;;;5267959;28;20191;-46
2023/08/21 08:46:57;;;;;;;2.37;1.70;;;30.40;48.90;;;;;;5270049;28;20782;-46
2023/08/21 08:49:29;;;;;;;2.10;1.90;;;30.80;47.20;;;;;;5271480;28;20443;-46
2023/08/21 08:52:00;;;;;;;3.90;1.57;;;30.80;45.40;;;;;;5264993;28;20459;-46
2023/08/21 08:54:35;;;;;;;5.37;1.30;;;30.90;46.70;;;;;;5269365;28;20478;-46
2023/08/21 08:57:05;;;;;;;2.40;1.20;;;31.30;45.00;;;;;;5269809;28;20519;-47
2023/08/21 08:59:36;;;;;;;0.97;0.97;;;31.10;44.10;;;;;;5274954;28;20177;-47
2023/08/21 09:02:07;;;;;;;1.43;1.30;;;30.60;42.00;;;;;;5276631;28;20197;-45
2023/08/21 09:04:38;;;;;;;2.70;1.17;;;30.30;39.70;;;;;;5275725;28;20200;-45
2023/08/21 09:07:12;;;;;;;1.00;0.90;;;29.60;39.00;;;;;;5275630;28;20193;-45
2023/08/21 09:09:49;;;;;;;2.57;2.00;;;29.40;40.30;;;;;;5273825;28;20249;-46
2023/08/21 09:12:21;;;;;;;1.40;1.30;;;29.60;40.90;;;;;;5274670;28;20455;-45
2023/08/21 09:14:52;;;;;;;7.13;1.37;;;29.60;40.30;;;;;;5270420;28;20506;-46
2023/08/21 09:17:23;;;;;;;2.03;1.07;;;29.70;39.10;;;;;;5267710;28;20552;-47
2023/08/21 09:19:54;;;;;;;1.57;1.13;;;30.10;39.70;;;;;;5268133;28;20219;-46
2023/08/21 09:22:25;;;;;;;1.30;1.30;;;29.90;40.80;;;;;;5268610;28;20220;-45
2023/08/21 09:25:07;;;;;;;8.47;1.50;;;30.30;41.30;;;;;;5267159;28;20282;-46
2023/08/21 09:27:40;;;;;;;4.23;1.90;;;30.30;41.60;;;;;;5266296;28;20236;-46
2023/08/21 09:30:16;;;;;;;2.93;1.47;;;30.40;42.60;;;;;;5267549;28;20177;-46
2023/08/21 09:32:55;;;;;;;0.73;0.73;;;30.20;42.70;;;;;;5271735;28;20230;-47
2023/08/21 09:35:27;;;;;;;2.93;1.67;;;29.90;43.40;;;;;;5268207;28;20469;-46
2023/08/21 09:37:57;;;;;;;1.13;1.10;;;30.00;43.80;;;;;;5268959;28;20442;-47
2023/08/21 09:40:28;;;;;;;3.43;2.57;;;29.90;43.40;;;;;;5270588;28;20815;-46
2023/08/21 09:42:59;;;;;;;2.63;1.00;;;30.00;44.30;;;;;;5269190;28;20173;-46
2023/08/21 09:45:31;;;;;;;1.83;1.27;;;29.80;44.10;;;;;;5265793;28;20216;-47
2023/08/21 09:48:02;;;;;;;4.97;1.43;;;29.50;45.20;;;;;;5272344;28;20219;-46
2023/08/21 09:50:34;;;;;;;3.70;0.80;;;29.40;45.10;;;;;;5265119;28;20431;-46
2023/08/21 09:53:06;;;;;;;2.90;1.20;;;29.10;45.00;;;;;;5268083;28;20805;-46
2023/08/21 09:55:39;;;;;;;1.13;1.03;;;29.10;45.00;;;;;;5262927;28;20459;-46
2023/08/21 09:58:11;;;;;;;1.53;1.43;;;28.90;45.40;;;;;;5269552;28;20434;-47
2023/08/21 10:00:43;;;;;;;1.90;1.20;;;29.20;45.50;;;;;;5266412;28;20506;-47
2023/08/21 10:03:19;;;;;;;1.90;1.10;;;28.90;45.50;;;;;;5266122;28;20434;-46
2023/08/21 10:05:53;;;;;;;1.57;1.20;;;28.90;46.00;;;;;;5259910;28;20485;-47
2023/08/21 10:08:25;;;;;;;3.80;1.10;;;28.50;46.70;;;;;;5264334;28;20431;-46
2023/08/21 10:10:57;;;;;;;3.03;1.57;;;28.30;47.10;;;;;;5265221;28;20451;-46
2023/08/21 10:13:28;;;;;;;0.97;0.87;;;28.10;47.60;;;;;;5264121;28;20437;-46
2023/08/21 10:15:59;;;;;;;2.40;1.33;;;27.90;47.70;;;;;;5266462;28;20451;-46
2023/08/21 10:18:32;;;;;;;1.47;1.30;;;27.70;48.60;;;;;;5261712;28;20188;-46
2023/08/21 10:21:25;;;;;;;3.80;2.00;;;27.80;48.40;;;;;;5267797;28;20961;-46
2023/08/21 10:23:56;;;;;;;6.37;1.60;;;28.00;47.80;;;;;;5270850;28;20787;-47
2023/08/21 10:26:27;;;;;;;0.87;0.77;;;28.30;48.00;;;;;;5267620;28;20439;-47
2023/08/21 10:29:02;;;;;;;1.00;0.97;;;28.40;47.50;;;;;;5257308;28;20528;-47
2023/08/21 10:31:34;;;;;;;2.60;1.00;;;28.50;47.00;;;;;;5264332;28;20208;-47
2023/08/21 10:34:10;;;;;;;2.47;1.60;;;28.60;47.00;;;;;;5270155;28;20452;-46
2023/08/21 10:36:44;;;;;;;1.20;1.20;;;28.70;47.20;;;;;;5266744;28;20631;-47
2023/08/21 10:39:18;;;;;;;2.43;1.30;;;28.80;46.60;;;;;;5262504;28;20420;-48
2023/08/21 10:41:56;;;;;;;1.30;1.20;;;28.50;47.30;;;;;;5260860;28;20445;-46
2023/08/21 10:44:41;;;;;;;2.13;2.03;;;28.60;47.90;;;;;;5268128;28;20454;-46
2023/08/21 10:47:16;;;;;;;1.93;1.80;;;29.00;48.10;;;;;;5266557;28;20945;-46
2023/08/21 10:49:55;;;;;;;1.90;1.27;;;28.90;46.50;;;;;;5265294;28;20456;-47
2023/08/21 10:52:44;;;;;;;1.67;1.57;;;28.70;46.80;;;;;;5261086;28;20455;-47
2023/08/21 10:55:16;;;;;;;2.10;1.47;;;28.50;46.60;;;;;;5265684;28;20494;-46
2023/08/21 10:57:48;;;;;;;2.23;1.63;;;28.50;47.30;;;;;;5248844;28;20489;-46
2023/08/21 11:00:20;;;;;;;2.13;1.13;;;28.50;46.70;;;;;;5267887;28;20489;-47
2023/08/21 11:02:51;;;;;;;1.30;1.20;;;28.40;47.40;;;;;;5267930;28;20446;-47
2023/08/21 11:05:22;;;;;;;1.20;1.10;;;28.50;47.50;;;;;;5265230;28;20440;-47
2023/08/21 11:07:52;;;;;;;1.73;1.40;;;28.70;47.40;;;;;;5263418;28;20437;-46
2023/08/21 11:10:24;;;;;;;1.43;1.33;;;28.80;47.10;;;;;;5267203;28;20660;-46
2023/08/21 11:12:57;;;;;;;7.00;3.47;;;28.60;47.10;;;;;;5268576;28;20193;-48
2023/08/21 11:15:29;;;;;;;2.93;2.17;;;28.90;47.00;;;;;;5267027;28;20429;-46
2023/08/21 11:18:03;;;;;;;10.90;1.90;;;29.10;47.10;;;;;;5266276;28;20415;-45
2023/08/21 11:20:35;;;;;;;27.93;17.03;;;29.30;46.00;;;;;;5267051;28;21023;-46
2023/08/21 11:23:07;;;;;;;21.57;11.77;;;29.60;45.40;;;;;;5264700;28;20485;-45
2023/08/21 11:25:41;;;;;;;2.00;1.43;;;29.40;45.20;;;;;;5263239;28;20484;-45
2023/08/21 11:28:16;;;;;;;2.13;1.93;;;29.40;45.20;;;;;;5266067;28;20531;-46
2023/08/21 11:30:48;;;;;;;2.83;2.63;;;29.20;46.20;;;;;;5268190;28;21184;-47
2023/08/21 11:33:19;;;;;;;12.70;6.97;;;29.30;46.70;;;;;;5261574;28;20563;-45
2023/08/21 11:35:51;;;;;;;2.67;2.43;;;29.30;46.20;;;;;;5259288;28;20491;-45
2023/08/21 11:38:25;;;;;;;1.43;1.43;;;29.60;46.10;;;;;;5264567;28;20185;-46
2023/08/21 11:41:05;;;;;;;2.80;2.40;;;29.80;45.20;;;;;;5261807;28;21115;-47
2023/08/21 11:43:41;;;;;;;2.10;1.63;;;29.80;45.20;;;;;;5267990;28;20794;-47
2023/08/21 11:46:13;;;;;;;7.03;4.60;;;30.00;45.50;;;;;;5251094;28;20431;-46
2023/08/21 11:48:47;;;;;;;3.73;3.00;;;30.20;45.60;;;;;;5261529;28;20576;-45
2023/08/21 11:51:18;;;;;;;1.57;1.47;;;30.10;44.90;;;;;;5264094;28;20544;-47
2023/08/21 11:53:49;;;;;;;7.90;3.77;;;29.90;45.30;;;;;;5267684;28;20440;-46
2023/08/21 11:56:19;;;;;;;5.20;4.70;;;29.90;45.30;;;;;;5269671;28;20197;-46
2023/08/21 11:58:50;;;;;;;3.57;2.07;;;29.60;45.10;;;;;;5269879;28;20185;-46
2023/08/21 12:01:21;;;;;;;5.47;1.93;;;29.40;45.10;;;;;;5269442;28;20197;-47
2023/08/21 12:03:56;;;;;;;1.43;1.30;;;29.00;46.50;;;;;;5269454;28;20273;-47
2023/08/21 12:06:32;;;;;;;11.33;1.87;;;29.10;46.30;;;;;;5267378;28;20449;-47
2023/08/21 12:09:04;;;;;;;1.57;1.47;;;29.20;46.00;;;;;;5268773;28;20529;-47
2023/08/21 12:11:37;;;;;;;2.40;1.20;;;29.30;45.60;;;;;;5266208;28;20452;-46
2023/08/21 12:14:08;;;;;;;8.00;5.27;;;29.50;45.50;;;;;;5267328;28;20482;-46
2023/08/21 12:16:39;;;;;;;8.77;3.57;;;29.70;45.70;;;;;;5268180;28;20494;-46
2023/08/21 12:19:11;;;;;;;1.20;1.10;;;30.00;45.50;;;;;;5254294;28;20230;-45
2023/08/21 12:21:42;;;;;;;3.23;1.80;;;30.20;45.70;;;;;;5273855;28;20222;-47
2023/08/21 12:24:13;;;;;;;2.20;1.63;;;30.20;45.50;;;;;;5273572;28;20427;-47
2023/08/21 12:26:43;;;;;;;2.83;2.00;;;30.00;45.00;;;;;;5269081;28;20184;-45
2023/08/21 12:29:14;;;;;;;5.30;1.60;;;29.70;45.70;;;;;;5265734;28;20181;-45
2023/08/21 12:31:45;;;;;;;1.70;1.10;;;29.50;46.50;;;;;;5267401;28;20350;-46
2023/08/21 12:34:15;;;;;;;1.20;1.10;;;29.20;47.20;;;;;;5265573;28;20197;-45
2023/08/21 12:36:46;;;;;;;2.47;1.03;;;28.90;47.10;;;;;;5268691;28;20213;-46
2023/08/21 12:39:17;;;;;;;1.40;1.30;;;28.90;47.80;;;;;;5271410;28;20188;-45
2023/08/21 12:41:48;;;;;;;2.87;1.37;;;28.90;48.00;;;;;;5266229;28;20208;-46
2023/08/21 12:44:19;;;;;;;3.27;2.03;;;28.70;47.70;;;;;;5269127;28;20427;-46
2023/08/21 12:46:51;;;;;;;2.30;2.10;;;28.60;48.60;;;;;;5267871;28;20231;-46
2023/08/21 12:49:21;;;;;;;10.30;6.40;;;28.60;48.90;;;;;;5251519;28;20181;-46
2023/08/21 12:51:52;;;;;;;1.60;1.60;;;28.80;47.90;;;;;;5269070;28;20452;-46
2023/08/21 12:54:23;;;;;;;2.23;1.57;;;29.20;47.80;;;;;;5271395;28;20209;-46
2023/08/21 12:56:56;;;;;;;27.50;15.00;;;29.20;47.10;;;;;;5274170;28;20214;-46
2023/08/21 12:59:27;;;;;;;3.97;3.57;;;29.30;47.50;;;;;;5268727;28;20220;-45
2023/08/21 13:02:02;;;;;;;4.03;1.40;;;29.40;46.30;;;;;;5271334;28;20857;-46
2023/08/21 13:04:33;;;;;;;34.37;11.73;;;29.50;45.50;;;;;;5269110;28;20214;-47
2023/08/21 13:07:04;;;;;;;19.23;9.87;;;29.00;44.10;;;;;;5264886;28;20435;-46